Time;durP1;ratioP1;P1;durP2;ratioP2;P2;SDS_P1;SDS_P2;PMS_P1;PMS_P2;Temp;Humidity;BMP_temperature;BMP_pressure;BME280_temperature;BME280_humidity;BME280_pressure;Samples;Min_cycle;Max_cycle;Signal;HPM_P1;HPM_P2
2021/03/18 07:18:58;;;;;;;0.10;0.10;;;1.70;85.20;;;;;;5150647;27;20138;-72
2021/03/18 07:21:40;;;;;;;0.20;0.20;;;1.80;86.20;;;;;;5129486;28;20474;-72
2021/03/18 07:24:23;;;;;;;0.22;0.20;;;2.00;88.40;;;;;;5129564;28;20088;-72
2021/03/18 07:26:50;;;;;;;0.90;0.50;;;2.00;90.20;;;;;;5129568;28;20043;-73
2021/03/18 07:29:19;;;;;;;0.45;0.40;;;2.10;90.90;;;;;;5129432;28;20035;-73
2021/03/18 07:31:45;;;;;;;1.83;0.75;;;2.20;91.50;;;;;;5130205;28;20035;-73
2021/03/18 07:34:11;;;;;;;0.55;0.47;;;2.30;91.90;;;;;;5129371;28;20039;-77
2021/03/18 07:36:39;;;;;;;1.25;0.50;;;2.40;92.60;;;;;;5129068;28;20399;-76
2021/03/18 07:39:06;;;;;;;0.70;0.50;;;2.50;92.60;;;;;;5129249;28;20084;-75
2021/03/18 07:41:33;;;;;;;2.05;0.90;;;2.70;92.80;;;;;;5129417;28;20039;-76
2021/03/18 07:43:59;;;;;;;0.80;0.80;;;2.70;92.90;;;;;;5129997;28;20047;-78
2021/03/18 07:46:26;;;;;;;1.45;0.85;;;2.80;93.00;;;;;;5129979;28;20058;-76
2021/03/18 07:48:55;;;;;;;3.60;1.00;;;2.90;93.10;;;;;;5130393;28;20040;-78
2021/03/18 07:51:21;;;;;;;2.70;1.10;;;2.90;93.10;;;;;;5111818;28;20044;-78
2021/03/18 07:53:52;;;;;;;1.20;0.90;;;3.00;93.10;;;;;;5129819;28;20049;-76
2021/03/18 07:56:18;;;;;;;2.03;1.10;;;3.00;93.20;;;;;;5111056;28;20500;-79
2021/03/18 07:58:46;;;;;;;1.42;0.82;;;3.10;93.20;;;;;;5129365;28;20035;-77
2021/03/18 08:01:35;;;;;;;1.13;0.90;;;3.30;93.20;;;;;;5129031;28;20038;-76
2021/03/18 08:04:04;;;;;;;1.65;0.98;;;3.20;93.10;;;;;;5129453;28;20047;-75
2021/03/18 08:06:44;;;;;;;1.58;0.85;;;3.30;93.20;;;;;;5129036;28;20069;-75
2021/03/18 08:09:12;;;;;;;1.80;0.60;;;3.40;93.20;;;;;;5129769;28;20051;-77
2021/03/18 08:11:40;;;;;;;2.15;0.95;;;3.40;93.20;;;;;;5112694;28;20084;-77
2021/03/18 08:14:07;;;;;;;1.27;0.60;;;3.60;93.20;;;;;;5129455;28;20035;-76
2021/03/18 08:16:34;;;;;;;1.25;0.80;;;3.50;93.10;;;;;;5125396;28;20039;-76
2021/03/18 08:19:01;;;;;;;1.55;0.70;;;3.60;93.10;;;;;;5110559;28;20102;-75
2021/03/18 08:21:44;;;;;;;1.45;0.85;;;3.70;93.10;;;;;;5128907;28;20043;-76
2021/03/18 08:24:14;;;;;;;1.27;0.75;;;3.70;93.10;;;;;;5095349;28;20114;-75
2021/03/18 08:26:45;;;;;;;1.00;0.90;;;3.80;93.00;;;;;;5111066;28;20063;-77
2021/03/18 08:29:16;;;;;;;1.55;0.95;;;3.80;93.00;;;;;;5121435;28;20497;-78
2021/03/18 08:31:45;;;;;;;2.97;0.93;;;4.00;93.00;;;;;;5115711;28;20035;-77
2021/03/18 08:34:12;;;;;;;1.15;0.88;;;4.10;93.00;;;;;;5096868;28;20036;-78
2021/03/18 08:36:53;;;;;;;0.90;0.60;;;4.10;92.90;;;;;;5115026;28;20473;-77
2021/03/18 08:39:53;;;;;;;1.75;0.70;;;4.10;92.80;;;;;;5095044;28;20379;-77
2021/03/18 08:42:36;;;;;;;2.13;1.10;;;4.20;92.90;;;;;;5080277;28;20074;-76
2021/03/18 08:45:09;;;;;;;1.67;0.88;;;4.20;92.80;;;;;;5115047;28;20032;-74
2021/03/18 08:47:48;;;;;;;1.88;0.90;;;4.30;92.80;;;;;;5115160;28;20070;-77
2021/03/18 08:50:49;;;;;;;2.88;1.08;;;4.40;92.80;;;;;;5115753;28;20044;-76
2021/03/18 08:53:28;;;;;;;0.85;0.73;;;4.40;92.80;;;;;;5116008;28;20517;-79
2021/03/18 08:55:55;;;;;;;1.65;0.90;;;4.50;92.70;;;;;;5115258;28;20390;-75
2021/03/18 08:58:20;;;;;;;2.42;1.13;;;4.70;92.70;;;;;;5114727;28;20044;-76
2021/03/18 09:00:46;;;;;;;2.17;1.20;;;4.70;92.70;;;;;;5095790;28;20050;-78
2021/03/18 09:03:17;;;;;;;1.75;1.10;;;4.80;92.60;;;;;;5096190;28;20047;-76
2021/03/18 09:05:54;;;;;;;2.47;1.20;;;4.90;92.60;;;;;;5096038;28;20039;-78
2021/03/18 09:08:24;;;;;;;1.70;1.10;;;4.90;92.50;;;;;;5095870;28;20050;-75
2021/03/18 09:10:49;;;;;;;2.72;1.20;;;4.90;92.50;;;;;;5114472;28;20079;-78
2021/03/18 09:13:19;;;;;;;2.47;1.17;;;4.90;92.50;;;;;;5115199;28;20036;-76
2021/03/18 09:15:47;;;;;;;1.70;0.98;;;5.00;92.50;;;;;;5114628;28;20050;-75
2021/03/18 09:18:25;;;;;;;1.42;0.95;;;5.10;92.60;;;;;;5115151;28;20100;-77
2021/03/18 09:20:56;;;;;;;1.65;0.90;;;5.30;92.50;;;;;;5096227;28;20489;-76
2021/03/18 09:23:24;;;;;;;1.20;1.00;;;5.40;92.50;;;;;;5096072;28;20046;-78
2021/03/18 09:25:53;;;;;;;2.33;1.10;;;5.40;92.40;;;;;;5095797;28;20047;-76
2021/03/18 09:28:19;;;;;;;3.05;1.35;;;5.60;92.30;;;;;;5114227;28;20051;-78
2021/03/18 09:30:47;;;;;;;1.60;1.05;;;5.80;92.40;;;;;;5096564;28;20065;-78
2021/03/18 09:33:21;;;;;;;1.73;1.20;;;5.70;92.30;;;;;;5114448;28;20424;-77
2021/03/18 09:35:49;;;;;;;2.13;1.17;;;5.70;92.30;;;;;;5115756;28;20047;-77
2021/03/18 09:38:26;;;;;;;2.17;1.20;;;5.80;92.30;;;;;;5095557;28;20071;-75
2021/03/18 09:40:53;;;;;;;1.85;1.10;;;6.00;92.20;;;;;;5112922;28;20477;-76
2021/03/18 09:43:22;;;;;;;3.45;1.48;;;6.00;92.10;;;;;;5114231;28;20032;-76
2021/03/18 09:45:55;;;;;;;2.83;1.35;;;6.10;92.10;;;;;;5114490;28;20567;-76
2021/03/18 09:48:29;;;;;;;2.75;1.05;;;6.20;92.10;;;;;;5114140;28;20050;-76
2021/03/18 09:51:12;;;;;;;2.10;1.15;;;6.30;92.10;;;;;;5113382;28;20394;-75
2021/03/18 09:53:40;;;;;;;1.85;1.20;;;6.40;92.00;;;;;;5113726;28;20089;-75
2021/03/18 09:56:09;;;;;;;3.25;1.30;;;6.40;91.90;;;;;;5117514;28;20047;-79
2021/03/18 09:58:36;;;;;;;3.08;1.40;;;6.50;91.90;;;;;;5116746;28;20127;-76
2021/03/18 10:01:16;;;;;;;2.47;1.27;;;6.50;91.90;;;;;;5116354;28;20537;-75
2021/03/18 10:03:57;;;;;;;3.67;1.30;;;6.40;91.90;;;;;;5113836;28;20070;-75
2021/03/18 10:06:26;;;;;;;3.60;1.55;;;6.50;92.00;;;;;;5115532;28;20036;-79
2021/03/18 10:08:53;;;;;;;3.10;1.08;;;6.60;92.00;;;;;;5078838;28;20047;-76
2021/03/18 10:11:22;;;;;;;3.85;1.25;;;6.60;92.00;;;;;;5113959;28;20516;-75
2021/03/18 10:13:48;;;;;;;3.30;1.17;;;6.70;92.00;;;;;;5113760;28;20032;-76
2021/03/18 10:16:14;;;;;;;3.70;1.05;;;6.70;91.90;;;;;;5122353;28;20512;-77
2021/03/18 10:18:40;;;;;;;3.78;1.40;;;6.70;91.90;;;;;;5079673;28;20040;-74
2021/03/18 10:21:06;;;;;;;1.95;1.02;;;6.70;91.90;;;;;;5114273;28;20043;-77
2021/03/18 10:23:32;;;;;;;4.10;1.20;;;6.70;91.80;;;;;;5097556;28;20040;-76
2021/03/18 10:25:58;;;;;;;3.63;1.27;;;6.80;91.80;;;;;;5116380;28;20367;-76
2021/03/18 10:28:29;;;;;;;3.95;1.20;;;6.90;92.10;;;;;;5115159;28;20118;-79
2021/03/18 10:30:55;;;;;;;3.63;0.93;;;6.90;91.70;;;;;;5078464;28;20108;-78
2021/03/18 10:33:27;;;;;;;3.00;0.93;;;7.00;91.70;;;;;;5113644;28;20028;-82
2021/03/18 10:36:03;;;;;;;5.25;1.25;;;7.10;91.70;;;;;;5064833;28;20071;-79
2021/03/18 10:38:35;;;;;;;1.75;1.00;;;7.10;91.50;;;;;;5095107;28;20046;-79
2021/03/18 10:41:21;;;;;;;2.97;0.77;;;7.30;91.50;;;;;;5116390;28;20047;-77
2021/03/18 10:43:48;;;;;;;3.70;1.08;;;7.30;91.50;;;;;;5095676;28;20044;-77
2021/03/18 10:46:16;;;;;;;2.95;1.00;;;7.30;91.50;;;;;;5113469;28;20036;-76
2021/03/18 10:48:46;;;;;;;2.88;0.82;;;7.40;91.50;;;;;;5113448;28;20047;-76
2021/03/18 10:51:15;;;;;;;1.65;0.88;;;7.50;91.50;;;;;;5112738;28;20122;-75
2021/03/18 10:53:44;;;;;;;4.60;1.40;;;7.60;91.40;;;;;;5112564;28;20074;-80
2021/03/18 10:56:17;;;;;;;3.40;0.90;;;7.80;91.20;;;;;;5114944;28;20046;-77
2021/03/18 10:58:43;;;;;;;3.20;0.82;;;7.80;91.10;;;;;;5079792;28;20055;-75
2021/03/18 11:01:12;;;;;;;6.18;1.20;;;8.00;91.10;;;;;;5113694;28;20040;-77
2021/03/18 11:03:41;;;;;;;0.60;0.60;;;8.00;91.30;;;;;;5113678;28;20039;-75
2021/03/18 11:06:23;;;;;;;2.50;0.90;;;8.10;90.90;;;;;;5112876;28;20027;-75
2021/03/18 11:08:54;;;;;;;2.33;0.70;;;8.10;90.80;;;;;;5094939;28;20039;-80
2021/03/18 11:11:26;;;;;;;2.38;0.80;;;8.10;91.20;;;;;;5033958;28;20044;-77
2021/03/18 11:14:05;;;;;;;1.98;0.98;;;8.00;90.90;;;;;;5034848;28;20045;-80
2021/03/18 11:16:31;;;;;;;2.08;0.73;;;7.90;91.00;;;;;;5050506;28;20124;-76
2021/03/18 11:19:00;;;;;;;1.05;0.63;;;8.00;91.10;;;;;;5049649;28;20053;-75
2021/03/18 11:21:36;;;;;;;0.75;0.68;;;8.10;91.10;;;;;;5050704;28;20037;-77
2021/03/18 11:24:07;;;;;;;1.75;0.73;;;8.20;91.20;;;;;;5049584;28;20104;-76
2021/03/18 11:26:33;;;;;;;1.35;0.47;;;8.30;91.00;;;;;;5051054;28;20048;-78
2021/03/18 11:29:11;;;;;;;1.35;0.63;;;8.40;90.80;;;;;;5050502;28;20055;-76
2021/03/18 11:31:41;;;;;;;2.17;0.88;;;8.30;90.70;;;;;;5050035;28;20045;-78
2021/03/18 11:34:22;;;;;;;2.55;0.90;;;8.30;90.80;;;;;;5049973;28;20541;-76
2021/03/18 11:36:53;;;;;;;3.85;1.10;;;8.40;90.70;;;;;;5049605;28;20041;-78
2021/03/18 11:39:20;;;;;;;2.00;0.80;;;8.30;90.70;;;;;;5033774;28;20071;-76
2021/03/18 11:41:47;;;;;;;2.70;0.90;;;8.20;90.80;;;;;;5067119;28;20082;-76
2021/03/18 11:44:14;;;;;;;1.73;0.68;;;8.20;90.80;;;;;;5094389;28;20036;-77
2021/03/18 11:46:41;;;;;;;3.40;1.02;;;8.20;90.70;;;;;;5113581;28;20488;-77
2021/03/18 11:49:06;;;;;;;2.40;0.80;;;8.20;90.70;;;;;;5113524;28;20038;-78
2021/03/18 11:51:32;;;;;;;3.22;0.90;;;8.20;90.80;;;;;;5093722;28;20039;-79
2021/03/18 11:53:58;;;;;;;2.53;0.80;;;8.20;90.80;;;;;;5077019;28;20040;-78
2021/03/18 11:56:24;;;;;;;3.63;0.80;;;8.10;90.70;;;;;;5095204;28;20107;-78
2021/03/18 11:58:50;;;;;;;1.90;0.80;;;8.10;90.70;;;;;;5112415;28;20059;-79
2021/03/18 12:01:16;;;;;;;4.05;0.90;;;8.10;90.70;;;;;;5111886;28;20040;-76
2021/03/18 12:03:42;;;;;;;1.40;0.70;;;8.10;90.70;;;;;;5094613;28;20171;-78
2021/03/18 12:06:08;;;;;;;3.58;0.70;;;8.10;90.70;;;;;;5118040;28;20055;-80
2021/03/18 12:09:03;;;;;;;2.85;0.80;;;8.10;90.70;;;;;;5093232;28;20058;-81
2021/03/18 12:11:29;;;;;;;1.88;0.80;;;8.00;90.60;;;;;;5115744;28;20051;-83
2021/03/18 12:14:29;;;;;;;2.65;0.70;;;8.00;90.60;;;;;;5096813;28;20393;-83
2021/03/18 12:16:54;;;;;;;1.70;0.60;;;8.00;90.60;;;;;;5083926;28;20044;-79
2021/03/18 12:19:20;;;;;;;0.75;0.50;;;8.00;90.60;;;;;;5098310;28;20042;-79
2021/03/18 12:21:45;;;;;;;2.42;0.60;;;8.10;90.60;;;;;;5100290;28;20445;-77
2021/03/18 12:24:12;;;;;;;2.50;0.55;;;8.10;90.50;;;;;;5116619;28;20028;-75
2021/03/18 12:26:40;;;;;;;2.05;0.93;;;8.20;90.50;;;;;;5115112;28;20039;-76
2021/03/18 12:29:06;;;;;;;1.10;0.50;;;8.40;90.40;;;;;;5115954;28;20032;-79
2021/03/18 12:31:31;;;;;;;2.08;0.70;;;8.50;90.20;;;;;;5080302;28;20035;-76
2021/03/18 12:33:57;;;;;;;1.98;0.57;;;8.60;90.10;;;;;;5115835;28;20382;-77
2021/03/18 12:36:23;;;;;;;1.92;0.77;;;8.70;90.00;;;;;;5116301;28;20036;-79
2021/03/18 12:38:50;;;;;;;2.85;0.80;;;8.80;90.00;;;;;;5097419;28;20081;-76
2021/03/18 12:41:16;;;;;;;0.50;0.30;;;8.80;89.80;;;;;;5115919;28;20069;-76
2021/03/18 12:43:42;;;;;;;3.05;0.68;;;8.90;89.70;;;;;;5114889;28;20085;-76
2021/03/18 12:46:08;;;;;;;1.05;0.45;;;8.90;89.60;;;;;;5115335;28;20043;-76
2021/03/18 12:48:34;;;;;;;1.25;0.43;;;8.90;89.50;;;;;;5115196;28;20043;-76
2021/03/18 12:51:03;;;;;;;0.85;0.43;;;9.00;89.50;;;;;;5096987;28;20122;-76
2021/03/18 12:53:29;;;;;;;4.13;0.70;;;9.00;89.40;;;;;;5096415;28;20078;-76
2021/03/18 12:55:55;;;;;;;1.00;0.50;;;9.10;89.30;;;;;;5116387;28;20039;-77
2021/03/18 12:58:21;;;;;;;3.70;0.60;;;9.10;89.20;;;;;;5118043;28;20477;-78
2021/03/18 13:00:47;;;;;;;1.67;0.50;;;9.00;88.90;;;;;;5116363;28;20555;-77
2021/03/18 13:03:13;;;;;;;1.00;0.40;;;9.10;89.10;;;;;;5114935;28;20034;-77
2021/03/18 13:05:39;;;;;;;1.42;0.50;;;9.00;88.90;;;;;;5115006;28;20039;-77
2021/03/18 13:08:05;;;;;;;0.98;0.40;;;9.00;89.10;;;;;;5115118;28;20042;-75
2021/03/18 13:10:31;;;;;;;0.88;0.40;;;9.10;89.10;;;;;;5079888;28;20039;-76
2021/03/18 13:12:57;;;;;;;0.73;0.20;;;9.10;89.00;;;;;;5115482;28;20051;-78
2021/03/18 13:15:23;;;;;;;1.17;0.22;;;9.20;89.00;;;;;;5114663;28;20039;-75
2021/03/18 13:17:49;;;;;;;1.75;0.50;;;9.20;88.80;;;;;;5113998;28;20047;-77
2021/03/18 13:20:18;;;;;;;1.58;0.55;;;9.40;88.60;;;;;;5117844;28;20131;-76
2021/03/18 13:22:44;;;;;;;1.35;0.20;;;9.40;88.50;;;;;;5115301;28;20043;-76
2021/03/18 13:25:11;;;;;;;0.98;0.40;;;9.30;88.50;;;;;;5114893;28;20043;-76
2021/03/18 13:27:38;;;;;;;1.38;0.50;;;9.40;88.30;;;;;;5095974;28;20031;-76
2021/03/18 13:30:06;;;;;;;2.72;0.50;;;9.50;88.20;;;;;;5115531;28;20040;-76
2021/03/18 13:32:32;;;;;;;0.68;0.40;;;9.60;88.00;;;;;;5118789;28;20443;-76
2021/03/18 13:34:57;;;;;;;1.08;0.30;;;9.60;87.70;;;;;;5120913;28;20048;-76
2021/03/18 13:37:23;;;;;;;1.75;0.30;;;9.70;87.60;;;;;;5121786;28;20092;-76
2021/03/18 13:39:49;;;;;;;0.45;0.25;;;9.80;87.40;;;;;;5103036;28;20047;-76
2021/03/18 13:42:15;;;;;;;1.13;0.50;;;9.80;87.30;;;;;;5120615;28;20031;-76
2021/03/18 13:44:40;;;;;;;1.85;0.43;;;9.80;87.30;;;;;;5118246;28;20047;-76
2021/03/18 13:47:07;;;;;;;2.17;0.47;;;9.70;87.20;;;;;;5119461;28;20504;-76
2021/03/18 13:49:33;;;;;;;2.63;0.57;;;9.70;87.30;;;;;;5119774;28;20040;-76
2021/03/18 13:52:01;;;;;;;1.23;0.52;;;9.70;87.10;;;;;;5103317;28;20043;-80
2021/03/18 13:54:27;;;;;;;2.42;0.60;;;9.60;87.20;;;;;;5113971;28;20036;-77
2021/03/18 13:56:53;;;;;;;1.27;0.50;;;9.70;87.20;;;;;;5113620;28;20092;-76
2021/03/18 13:59:19;;;;;;;2.88;0.60;;;9.70;87.00;;;;;;5114991;28;20036;-75
2021/03/18 14:01:46;;;;;;;1.75;0.55;;;9.70;86.90;;;;;;5118308;28;20039;-78
2021/03/18 14:04:25;;;;;;;1.55;0.55;;;9.60;86.80;;;;;;5121919;28;20043;-79
2021/03/18 14:06:51;;;;;;;2.38;0.50;;;9.50;86.90;;;;;;5081770;28;20066;-73
2021/03/18 14:09:16;;;;;;;2.00;0.63;;;9.60;86.90;;;;;;5113672;28;20485;-74
2021/03/18 14:11:42;;;;;;;1.38;0.40;;;9.70;86.80;;;;;;5113750;28;20043;-74
2021/03/18 14:14:08;;;;;;;3.35;0.60;;;9.80;86.50;;;;;;5113413;28;20085;-75
2021/03/18 14:16:34;;;;;;;0.95;0.43;;;10.00;86.20;;;;;;5095381;28;20046;-76
2021/03/18 14:18:59;;;;;;;1.00;0.50;;;10.20;85.60;;;;;;5113968;28;20039;-77
2021/03/18 14:21:25;;;;;;;2.45;0.70;;;10.40;85.10;;;;;;5113048;28;20031;-77
2021/03/18 14:23:51;;;;;;;2.60;0.77;;;10.40;84.70;;;;;;5078545;28;20036;-77
2021/03/18 14:26:21;;;;;;;2.00;0.60;;;10.40;84.60;;;;;;5112943;28;20581;-75
2021/03/18 14:28:47;;;;;;;2.97;0.70;;;10.50;84.40;;;;;;5113856;28;20497;-75
2021/03/18 14:31:13;;;;;;;3.42;0.90;;;10.60;84.20;;;;;;5113902;28;20074;-73
2021/03/18 14:33:39;;;;;;;2.70;0.52;;;10.70;83.90;;;;;;5113696;28;20048;-74
2021/03/18 14:36:05;;;;;;;2.33;0.73;;;10.80;83.50;;;;;;5093914;28;20370;-74
2021/03/18 14:38:31;;;;;;;2.47;0.52;;;11.00;83.20;;;;;;5112974;28;20079;-73
2021/03/18 14:40:57;;;;;;;2.00;0.60;;;11.10;82.60;;;;;;5113265;28;20040;-73
2021/03/18 14:43:23;;;;;;;2.95;0.50;;;11.10;82.20;;;;;;5113207;28;20028;-75
2021/03/18 14:45:49;;;;;;;1.33;0.57;;;11.10;82.10;;;;;;5113171;28;20087;-75
2021/03/18 14:48:16;;;;;;;1.67;0.38;;;10.80;82.30;;;;;;5113044;28;20047;-74
2021/03/18 14:50:43;;;;;;;0.95;0.35;;;10.60;82.70;;;;;;5116556;28;20044;-77
2021/03/18 14:53:15;;;;;;;1.48;0.40;;;10.30;83.20;;;;;;5113781;28;20096;-74
2021/03/18 14:55:42;;;;;;;;;;;10.10;83.70;;;;;;5113866;28;20048;-74
2021/03/18 14:58:08;;;;;;;2.78;0.45;;;9.90;84.10;;;;;;5113320;28;19922;-76
2021/03/18 15:00:34;;;;;;;3.08;0.50;;;9.80;84.50;;;;;;5114414;28;20418;-77
2021/03/18 15:03:00;;;;;;;2.50;0.70;;;9.60;84.60;;;;;;5116001;28;20035;-76
2021/03/18 15:05:26;;;;;;;3.50;0.77;;;9.50;84.80;;;;;;5116873;28;20049;-77
2021/03/18 15:07:53;;;;;;;1.60;0.52;;;9.40;84.90;;;;;;5106894;28;20059;-78
2021/03/18 15:10:18;;;;;;;2.10;0.73;;;9.40;85.00;;;;;;5108004;28;20039;-77
2021/03/18 15:12:44;;;;;;;1.73;0.60;;;9.40;84.90;;;;;;5124730;28;20043;-74
2021/03/18 15:15:12;;;;;;;1.92;0.50;;;9.30;84.80;;;;;;5117079;28;20048;-77
2021/03/18 15:17:38;;;;;;;1.88;0.60;;;9.30;84.60;;;;;;5124826;28;20048;-77
2021/03/18 15:20:09;;;;;;;3.03;0.65;;;9.20;84.60;;;;;;5119081;28;20047;-73
2021/03/18 15:22:35;;;;;;;2.75;0.40;;;9.10;84.70;;;;;;5113630;28;20031;-76
2021/03/18 15:25:00;;;;;;;3.63;0.70;;;9.10;84.60;;;;;;5112908;28;20381;-74
2021/03/18 15:27:26;;;;;;;2.22;0.68;;;9.00;84.90;;;;;;5112480;28;20037;-73
2021/03/18 15:29:52;;;;;;;1.42;0.55;;;9.00;85.00;;;;;;5113518;28;20032;-75
2021/03/18 15:32:17;;;;;;;2.10;0.57;;;9.00;84.90;;;;;;5118985;28;20057;-77
2021/03/18 15:34:43;;;;;;;1.80;0.70;;;9.00;84.90;;;;;;5119903;28;20050;-77
2021/03/18 15:37:09;;;;;;;0.28;0.28;;;9.00;84.80;;;;;;5115939;28;20047;-75
2021/03/18 15:39:34;;;;;;;1.23;0.43;;;9.10;84.80;;;;;;5114675;28;20046;-73
2021/03/18 15:42:00;;;;;;;0.70;0.20;;;9.30;84.80;;;;;;5115863;28;20036;-73
2021/03/18 15:44:26;;;;;;;1.30;0.38;;;9.50;84.30;;;;;;5116285;28;20032;-76
2021/03/18 15:46:52;;;;;;;1.70;0.65;;;9.60;84.10;;;;;;5115794;28;20055;-80
2021/03/18 15:49:17;;;;;;;1.05;0.45;;;10.00;84.00;;;;;;5123748;28;20032;-75
2021/03/18 15:51:43;;;;;;;1.77;0.45;;;10.10;82.00;;;;;;5118469;28;20461;-73
2021/03/18 15:54:09;;;;;;;2.10;0.50;;;10.00;81.70;;;;;;5118580;28;20035;-74
2021/03/18 15:56:38;;;;;;;2.30;0.63;;;10.00;81.90;;;;;;5118653;28;20433;-73
2021/03/18 15:59:04;;;;;;;0.55;0.30;;;9.90;82.20;;;;;;5098240;28;20040;-74
2021/03/18 16:01:30;;;;;;;1.40;0.28;;;9.80;82.50;;;;;;5099146;28;20039;-73
2021/03/18 16:03:56;;;;;;;0.70;0.40;;;9.70;82.70;;;;;;5116061;28;20504;-73
2021/03/18 16:06:21;;;;;;;1.92;0.50;;;9.60;82.90;;;;;;5115837;28;20119;-78
2021/03/18 16:08:48;;;;;;;2.45;0.40;;;9.70;83.20;;;;;;5079840;28;20056;-77
2021/03/18 16:11:14;;;;;;;2.72;1.05;;;9.50;82.90;;;;;;5116443;28;20050;-74
2021/03/18 16:13:39;;;;;;;3.60;0.85;;;9.60;82.80;;;;;;5115414;28;20048;-76
2021/03/18 16:16:05;;;;;;;2.88;0.70;;;9.60;82.50;;;;;;5115773;28;20062;-73
2021/03/18 16:18:31;;;;;;;3.05;0.60;;;9.60;82.40;;;;;;5116100;28;20556;-75
2021/03/18 16:20:57;;;;;;;1.90;0.43;;;9.60;82.20;;;;;;5115168;28;20031;-72
2021/03/18 16:23:23;;;;;;;1.42;0.43;;;9.50;82.10;;;;;;5115296;28;20490;-72
2021/03/18 16:25:50;;;;;;;2.83;0.50;;;9.40;82.20;;;;;;5115145;28;20131;-72
2021/03/18 16:28:18;;;;;;;2.35;0.60;;;9.30;82.40;;;;;;5115366;28;20067;-72
2021/03/18 16:30:44;;;;;;;3.45;0.68;;;9.20;82.70;;;;;;5115014;28;20044;-72
2021/03/18 16:33:13;;;;;;;2.25;0.60;;;9.00;82.90;;;;;;5115050;28;20043;-72
2021/03/18 16:35:42;;;;;;;2.30;0.55;;;9.00;83.10;;;;;;5115589;28;20099;-73
2021/03/18 16:38:09;;;;;;;2.58;0.60;;;8.90;83.30;;;;;;5115408;28;20107;-73
2021/03/18 16:40:35;;;;;;;1.02;0.30;;;8.80;83.30;;;;;;5115205;28;20035;-72
2021/03/18 16:43:02;;;;;;;1.65;0.45;;;8.80;83.50;;;;;;5114836;28;20489;-73
2021/03/18 16:45:29;;;;;;;2.20;0.43;;;8.70;83.60;;;;;;5096952;28;20031;-72
2021/03/18 16:47:55;;;;;;;0.85;0.30;;;8.70;83.60;;;;;;5096633;28;20031;-72
2021/03/18 16:50:22;;;;;;;1.55;0.50;;;8.70;83.80;;;;;;5114496;28;20051;-72
2021/03/18 16:52:48;;;;;;;1.05;0.40;;;8.60;84.00;;;;;;5114902;28;20114;-73
2021/03/18 16:55:15;;;;;;;0.73;0.40;;;8.50;84.00;;;;;;5114722;28;20043;-72
2021/03/18 16:57:43;;;;;;;0.85;0.40;;;8.50;84.10;;;;;;5114447;28;20082;-72
2021/03/18 17:00:12;;;;;;;1.30;0.40;;;8.50;84.20;;;;;;5115112;28;20039;-73
2021/03/18 17:02:39;;;;;;;1.05;0.30;;;8.40;84.20;;;;;;5115043;28;20028;-72
2021/03/18 17:05:06;;;;;;;1.65;0.30;;;8.40;84.30;;;;;;5114757;28;20031;-72
2021/03/18 17:07:32;;;;;;;1.58;0.50;;;8.30;84.40;;;;;;5114442;28;20035;-72
2021/03/18 17:09:58;;;;;;;0.10;0.10;;;8.30;84.30;;;;;;5096296;28;20512;-72
2021/03/18 17:12:23;;;;;;;1.73;0.30;;;8.20;84.30;;;;;;5096075;28;20043;-72
2021/03/18 17:14:49;;;;;;;3.05;0.43;;;8.20;84.40;;;;;;5079092;28;20504;-72
2021/03/18 17:17:15;;;;;;;1.45;0.55;;;8.20;84.40;;;;;;5114279;28;20041;-72
2021/03/18 17:19:41;;;;;;;0.80;0.38;;;8.10;84.30;;;;;;5114401;28;20036;-72
2021/03/18 17:22:06;;;;;;;1.80;0.57;;;8.10;84.30;;;;;;5114957;28;20123;-72
2021/03/18 17:24:33;;;;;;;1.02;0.35;;;8.00;84.20;;;;;;5114465;28;20042;-72
2021/03/18 17:26:59;;;;;;;0.93;0.30;;;7.90;84.20;;;;;;5096499;28;20043;-72
2021/03/18 17:29:25;;;;;;;1.17;0.30;;;7.90;84.20;;;;;;5114780;28;20043;-72
2021/03/18 17:31:51;;;;;;;1.05;0.30;;;7.80;84.30;;;;;;5114263;28;20088;-72
2021/03/18 17:34:17;;;;;;;0.40;0.22;;;7.80;84.40;;;;;;5114543;28;20092;-72
2021/03/18 17:36:42;;;;;;;1.27;0.32;;;7.70;84.40;;;;;;5095404;28;20032;-72
2021/03/18 17:39:08;;;;;;;2.00;0.57;;;7.60;84.30;;;;;;5094758;28;20040;-72
2021/03/18 17:41:34;;;;;;;2.35;0.22;;;7.60;84.30;;;;;;5114032;28;20071;-72
2021/03/18 17:44:00;;;;;;;0.90;0.30;;;7.50;84.30;;;;;;5114415;28;20036;-72
2021/03/18 17:46:26;;;;;;;1.30;0.30;;;7.50;84.40;;;;;;5114380;28;20394;-72
2021/03/18 17:48:52;;;;;;;0.10;0.10;;;7.40;84.30;;;;;;5096404;28;20040;-72
2021/03/18 17:51:18;;;;;;;1.52;0.40;;;7.40;84.40;;;;;;5113863;28;20035;-72
2021/03/18 17:53:51;;;;;;;1.98;0.50;;;7.30;84.40;;;;;;5113671;28;20073;-72
2021/03/18 17:56:19;;;;;;;0.40;0.20;;;7.20;84.40;;;;;;5113808;28;20065;-72
2021/03/18 17:58:46;;;;;;;1.88;0.65;;;7.30;84.50;;;;;;5113663;28;20392;-71
2021/03/18 18:01:13;;;;;;;0.35;0.22;;;7.20;84.40;;;;;;5113200;28;20111;-72
2021/03/18 18:03:38;;;;;;;0.25;0.25;;;7.20;84.50;;;;;;5113433;28;20096;-72
2021/03/18 18:06:05;;;;;;;0.25;0.20;;;7.10;84.50;;;;;;5113443;28;20032;-72
2021/03/18 18:08:30;;;;;;;0.60;0.50;;;7.10;84.50;;;;;;5113681;28;20123;-72
2021/03/18 18:10:56;;;;;;;0.25;0.20;;;7.20;84.60;;;;;;5113250;28;20122;-73
2021/03/18 18:13:23;;;;;;;0.28;0.20;;;7.10;84.60;;;;;;5113494;28;20442;-72
2021/03/18 18:15:49;;;;;;;0.15;0.15;;;7.10;84.60;;;;;;5113680;28;20511;-72
2021/03/18 18:18:15;;;;;;;0.65;0.25;;;7.10;84.70;;;;;;5113812;28;20524;-73
2021/03/18 18:20:41;;;;;;;0.43;0.20;;;7.10;84.70;;;;;;5113057;28;20035;-72
2021/03/18 18:23:07;;;;;;;0.22;0.20;;;7.00;84.70;;;;;;5113372;28;20055;-72
2021/03/18 18:25:33;;;;;;;0.65;0.20;;;7.10;84.80;;;;;;5112628;28;20050;-72
2021/03/18 18:28:00;;;;;;;0.57;0.28;;;7.00;84.80;;;;;;5113154;28;20050;-72
2021/03/18 18:30:29;;;;;;;0.68;0.20;;;7.00;84.90;;;;;;5095033;28;20082;-72
2021/03/18 18:32:56;;;;;;;0.57;0.20;;;7.00;85.00;;;;;;5113198;28;20092;-72
2021/03/18 18:35:22;;;;;;;0.38;0.35;;;6.90;84.90;;;;;;5113104;28;20502;-72
2021/03/18 18:37:48;;;;;;;0.98;0.22;;;6.90;85.00;;;;;;5095044;28;20070;-72
2021/03/18 18:40:19;;;;;;;0.65;0.28;;;6.90;85.00;;;;;;5113618;28;20040;-72
2021/03/18 18:42:45;;;;;;;0.10;0.10;;;6.90;85.00;;;;;;5112924;28;20123;-72
2021/03/18 18:45:14;;;;;;;1.02;0.20;;;6.90;85.00;;;;;;5113272;28;20491;-72
2021/03/18 18:47:40;;;;;;;0.20;0.20;;;6.80;85.00;;;;;;5113657;28;20047;-72
2021/03/18 18:50:08;;;;;;;0.30;0.30;;;6.80;85.10;;;;;;5094391;28;20043;-72
2021/03/18 18:52:34;;;;;;;1.35;0.30;;;6.80;85.10;;;;;;5112672;28;20028;-72
2021/03/18 18:55:00;;;;;;;0.80;0.30;;;6.80;85.10;;;;;;5112911;28;20039;-72
2021/03/18 18:57:26;;;;;;;1.02;0.30;;;6.80;85.10;;;;;;5112944;28;20051;-72
2021/03/18 18:59:52;;;;;;;0.50;0.30;;;6.70;85.10;;;;;;5094647;28;20040;-70
2021/03/18 19:02:18;;;;;;;0.28;0.20;;;6.70;85.10;;;;;;5094515;28;20039;-73
2021/03/18 19:04:44;;;;;;;1.42;0.30;;;6.70;85.10;;;;;;5094547;28;20036;-73
2021/03/18 19:07:11;;;;;;;0.88;0.22;;;6.70;85.10;;;;;;5112712;28;20036;-70
2021/03/18 19:09:37;;;;;;;1.00;0.30;;;6.60;85.10;;;;;;5095084;28;20035;-73
2021/03/18 19:12:04;;;;;;;0.70;0.38;;;6.60;85.20;;;;;;5112542;28;20067;-70
2021/03/18 19:14:30;;;;;;;1.25;0.35;;;6.60;85.20;;;;;;5112319;28;20409;-70
2021/03/18 19:16:57;;;;;;;0.85;0.20;;;6.60;85.20;;;;;;5112727;28;20042;-70
2021/03/18 19:19:23;;;;;;;0.10;0.10;;;6.50;85.20;;;;;;5112669;28;20046;-70
2021/03/18 19:21:50;;;;;;;0.82;0.28;;;6.50;85.30;;;;;;5112696;28;20505;-71
2021/03/18 19:24:15;;;;;;;1.20;0.40;;;6.50;85.30;;;;;;5112349;28;20138;-72
2021/03/18 19:26:41;;;;;;;0.73;0.38;;;6.50;85.30;;;;;;5112623;28;20532;-70
2021/03/18 19:29:07;;;;;;;0.60;0.32;;;6.40;85.30;;;;;;5112846;28;20051;-70
2021/03/18 19:31:33;;;;;;;1.60;0.40;;;6.50;85.40;;;;;;5112526;28;20397;-70
2021/03/18 19:33:59;;;;;;;1.27;0.45;;;6.40;85.40;;;;;;5112501;28;20040;-73
2021/03/18 19:36:25;;;;;;;0.93;0.43;;;6.40;85.50;;;;;;5112735;28;20540;-73
2021/03/18 19:38:52;;;;;;;0.90;0.40;;;6.30;85.40;;;;;;5093646;28;20477;-73
2021/03/18 19:41:18;;;;;;;1.90;0.40;;;6.30;85.40;;;;;;5112778;28;20044;-72
2021/03/18 19:43:45;;;;;;;0.55;0.30;;;6.20;85.40;;;;;;5112654;28;20125;-72
2021/03/18 19:46:13;;;;;;;0.30;0.30;;;6.30;85.50;;;;;;5112429;28;20063;-72
2021/03/18 19:48:39;;;;;;;1.50;0.40;;;6.20;85.50;;;;;;5112022;28;20055;-72
2021/03/18 19:51:06;;;;;;;1.90;0.45;;;6.20;85.60;;;;;;5059280;28;20398;-74
2021/03/18 19:53:32;;;;;;;0.68;0.40;;;6.20;85.60;;;;;;5112650;28;20101;-72
2021/03/18 19:55:58;;;;;;;0.60;0.30;;;6.20;85.60;;;;;;5093388;28;20036;-72
2021/03/18 19:58:24;;;;;;;0.60;0.30;;;6.10;85.70;;;;;;5111977;28;20108;-72
2021/03/18 20:00:51;;;;;;;0.32;0.30;;;6.10;85.70;;;;;;5112408;28;20071;-72
2021/03/18 20:03:17;;;;;;;0.63;0.20;;;6.10;85.70;;;;;;5093777;28;20043;-72
2021/03/18 20:05:44;;;;;;;0.85;0.30;;;6.10;85.80;;;;;;5111992;28;20028;-72
2021/03/18 20:08:12;;;;;;;1.50;0.30;;;6.10;85.80;;;;;;5112073;28;20047;-73
2021/03/18 20:10:39;;;;;;;0.70;0.25;;;6.10;85.80;;;;;;5111853;28;20088;-72
2021/03/18 20:13:05;;;;;;;1.88;0.40;;;6.10;85.90;;;;;;5111844;28;20054;-73
2021/03/18 20:15:32;;;;;;;0.35;0.25;;;6.10;85.90;;;;;;5112115;28;20044;-73
2021/03/18 20:17:59;;;;;;;1.45;0.28;;;6.00;85.80;;;;;;5112189;28;20042;-73
2021/03/18 20:20:31;;;;;;;0.43;0.35;;;6.00;85.90;;;;;;5112537;28;20043;-73